Aérodrome :
LOGIN :

S'inscrire | Disclaimer

   EN    FR    IT 

 










Légende :    VFR   VFR Marginal   IFR   IFR Intensif   IFR Très Intensif
Visi : 
Plafond : 
>= 8 km
>= 3000ft
5 à 8 km
1000 à 3000 ft
1500m à 5 km
500 à 1000 ft
800 à 1500m
200 à 500 ft
< 800m
< 200 ft
Symboles :   Orages  Brouillard  Fortes neiges  Fortes précipitations  Vent > 20 kt
SIGMETs :   Divers  Orages  Givrage  Turbulence  Onde Orograph.  Cendres Volcan.






- Altitude de l'aérodrome : 72 ft
- Code IATA : UDE


EHVK - Volkel Airbase

DERNIER METAR :
  • 171825Z AUTO 25014G24KT 220V290 9999 FEW033 OVC040 09/04 Q1016 BLU

METARs EXPIRÉS :
  • 171755Z AUTO 24015KT 220V280 9999 FEW033 SCT043 09/04 Q1015 BLU
  • 171725Z AUTO 23012KT 9999 FEW034 SCT040 08/05 Q1014 BLU
  • 171655Z AUTO 21011KT 160V250 9999 FEW028 SCT033 BKN040 09/06 Q1014 BLU
  • 171625Z AUTO 22008KT 9999 OVC210 08/06 Q1014 BLU
  • 171555Z AUTO 23010KT 190V250 9999 FEW021 OVC200 09/07 Q1014 REDZ BLU
  • 171542Z AUTO 22008KT 190V250 9999 SCT018 BKN022 OVC028 09/08 Q1013 WHT

TAF TAF EHVK
Valide du 17 à 18h jusqu'au 18 à 06h UTC


171749Z 1718/1806 25015G25KT 9999 FEW015 SCT030
BECMG 1720/1722 24010KT
PROB40
TEMPO 1801/1808 SCT008 BKN010



MET'MAP, la Météo Aéronautique d'un coup d'oeil ! - Copyright ORBIFLY Décembre 2007 - Disclaimer

ORBIFLY MET'MAP TEAM :

Programmation & Développement : Alexandra Zaïnal
Sur une idée originale de : Baudouin d'Aumeries
Assistance à la programmation : Marc-Olivier Méhu
Soutien technique & logistique : Manuel Goepfert

Contact : metmap@orbifly.com




SOURCES & CREDITS :

   NOAA